Time;durP1;ratioP1;P1;durP2;ratioP2;P2;SDS_P1;SDS_P2;PMS_P1;PMS_P2;Temp;Humidity;BMP_temperature;BMP_pressure;BME280_temperature;BME280_humidity;BME280_pressure;Samples;Min_cycle;Max_cycle;Signal;HPM_P1;HPM_P2
2023/07/12 00:01:55;;;;;;;;;;;;;;;10.94;94.87;98553.50;5053219;28;20296;-82
2023/07/12 00:04:21;;;;;;;;;;;;;;;10.91;95.01;98552.13;5053242;28;19932;-82
2023/07/12 00:06:48;;;;;;;;;;;;;;;10.88;94.86;98549.97;5051622;28;20458;-83
2023/07/12 00:09:15;;;;;;;;;;;;;;;10.90;94.90;98564.03;5053411;28;20417;-83
2023/07/12 00:11:42;;;;;;;;;;;;;;;10.91;95.08;98556.72;5053551;28;19971;-83
2023/07/12 00:14:09;;;;;;;;;;;;;;;10.94;94.73;98558.91;5052580;28;19928;-82
2023/07/12 00:16:36;;;;;;;;;;;;;;;10.95;94.58;98565.97;5057195;28;20394;-83
2023/07/12 00:19:04;;;;;;;;;;;;;;;10.91;94.64;98568.34;5066816;28;19963;-83
2023/07/12 00:21:31;;;;;;;;;;;;;;;10.89;94.41;98558.88;5055318;28;19931;-82
2023/07/12 00:23:58;;;;;;;;;;;;;;;10.87;94.41;98555.63;5045071;28;20284;-83
2023/07/12 00:26:29;;;;;;;;;;;;;;;10.88;94.51;98554.56;5032981;28;19979;-82
2023/07/12 00:28:57;;;;;;;;;;;;;;;10.92;94.60;98550.28;5031604;28;20345;-82
2023/07/12 00:31:24;;;;;;;;;;;;;;;10.89;94.53;98550.78;5032842;28;19931;-82
2023/07/12 00:33:51;;;;;;;;;;;;;;;10.87;94.75;98545.66;5032659;28;20333;-82
2023/07/12 00:36:19;;;;;;;;;;;;;;;10.83;94.71;98550.72;5032690;28;19940;-82
2023/07/12 00:38:46;;;;;;;;;;;;;;;10.81;94.83;98550.19;5014827;28;20015;-82
2023/07/12 00:41:23;;;;;;;;;;;;;;;10.78;94.84;98550.69;5031541;28;19929;-82
2023/07/12 00:43:55;;;;;;;;;;;;;;;10.75;94.95;98547.69;5032403;28;20027;-82
2023/07/12 00:46:21;;;;;;;;;;;;;;;10.76;95.04;98547.44;5032777;28;19956;-81
2023/07/12 00:48:48;;;;;;;;;;;;;;;10.76;94.93;98554.72;5031273;28;20027;-82
2023/07/12 00:51:21;;;;;;;;;;;;;;;10.70;94.90;98542.25;5036056;28;19924;-82
2023/07/12 00:53:48;;;;;;;;;;;;;;;10.65;94.84;98542.22;5052224;28;19936;-82
2023/07/12 00:56:15;;;;;;;;;;;;;;;10.63;94.76;98546.00;5051036;28;19986;-81
2023/07/12 00:58:47;;;;;;;;;;;;;;;10.58;94.40;98539.72;5052049;28;19962;-82
2023/07/12 01:01:14;;;;;;;;;;;;;;;10.51;94.39;98549.91;5050968;28;20027;-82
2023/07/12 01:03:42;;;;;;;;;;;;;;;10.48;94.32;98547.69;5001673;28;20015;-82
2023/07/12 01:06:09;;;;;;;;;;;;;;;10.46;94.39;98541.75;5052082;28;20430;-82
2023/07/12 01:08:37;;;;;;;;;;;;;;;10.47;94.57;98544.19;5053053;28;19959;-81
2023/07/12 01:11:03;;;;;;;;;;;;;;;10.46;94.59;98539.06;5052462;28;19932;-83
2023/07/12 01:13:31;;;;;;;;;;;;;;;10.45;94.72;98537.44;5050612;28;20302;-82
2023/07/12 01:16:01;;;;;;;;;;;;;;;10.39;94.91;98526.59;5034496;28;19929;-81
2023/07/12 01:18:28;;;;;;;;;;;;;;;10.31;94.90;98531.66;5033801;28;19928;-81
2023/07/12 01:21:09;;;;;;;;;;;;;;;10.21;94.95;98521.53;5050185;28;20307;-82
2023/07/12 01:23:37;;;;;;;;;;;;;;;10.09;95.31;98526.25;5033604;28;20294;-80
2023/07/12 01:26:16;;;;;;;;;;;;;;;10.04;95.76;98529.69;5051742;28;19929;-81
2023/07/12 01:28:44;;;;;;;;;;;;;;;10.05;95.94;98525.94;5047287;28;20016;-82
2023/07/12 01:31:11;;;;;;;;;;;;;;;10.06;95.92;98527.56;5031118;28;20529;-82
2023/07/12 01:33:37;;;;;;;;;;;;;;;10.13;95.88;98522.00;5031298;28;20023;-82
2023/07/12 01:36:04;;;;;;;;;;;;;;;10.20;95.59;98525.28;5030225;28;20407;-82
2023/07/12 01:38:31;;;;;;;;;;;;;;;10.23;95.48;98518.56;5031651;28;20011;-82
2023/07/12 01:40:58;;;;;;;;;;;;;;;10.25;95.46;98514.53;5014165;28;20315;-81
2023/07/12 01:43:25;;;;;;;;;;;;;;;10.30;95.67;98516.50;5031847;28;19967;-81
2023/07/12 01:45:52;;;;;;;;;;;;;;;10.36;95.56;98521.72;5031072;28;19931;-82
2023/07/12 01:48:19;;;;;;;;;;;;;;;10.30;95.38;98514.63;5041795;28;19925;-82
2023/07/12 01:50:46;;;;;;;;;;;;;;;10.24;95.50;98523.72;5051020;28;19932;-82
2023/07/12 01:53:14;;;;;;;;;;;;;;;10.22;95.60;98525.03;5033697;28;19943;-81
2023/07/12 01:55:44;;;;;;;;;;;;;;;10.22;95.88;98515.06;5051013;28;20337;-82
2023/07/12 01:58:15;;;;;;;;;;;;;;;10.23;95.58;98522.09;5049904;28;19924;-82
2023/07/12 02:00:42;;;;;;;;;;;;;;;10.23;95.57;98527.50;5050912;28;19924;-82
2023/07/12 02:03:08;;;;;;;;;;;;;;;10.27;95.34;98520.50;5051034;28;19929;-82
2023/07/12 02:05:35;;;;;;;;;;;;;;;10.28;95.28;98524.88;5035019;28;19978;-82
2023/07/12 02:08:02;;;;;;;;;;;;;;;10.29;95.09;98525.69;5051297;28;19931;-82
2023/07/12 02:10:29;;;;;;;;;;;;;;;10.30;94.96;98516.50;5051093;28;20015;-81
2023/07/12 02:12:56;;;;;;;;;;;;;;;10.29;94.19;98523.00;5049412;28;19924;-82
2023/07/12 02:15:23;;;;;;;;;;;;;;;10.32;93.83;98523.28;5049556;28;19925;-83
2023/07/12 02:17:50;;;;;;;;;;;;;;;10.28;93.24;98529.44;5049548;28;19925;-82
2023/07/12 02:20:17;;;;;;;;;;;;;;;10.30;93.25;98528.09;5049996;28;19969;-82
2023/07/12 02:22:45;;;;;;;;;;;;;;;10.37;93.36;98525.22;5050811;28;19931;-82
2023/07/12 02:25:16;;;;;;;;;;;;;;;10.44;92.99;98533.13;5049450;28;19924;-83
2023/07/12 02:27:45;;;;;;;;;;;;;;;10.40;92.50;98524.69;5050674;28;19970;-82
2023/07/12 02:30:13;;;;;;;;;;;;;;;10.48;92.73;98523.44;5033858;28;20268;-81
2023/07/12 02:32:40;;;;;;;;;;;;;;;10.51;92.34;98520.25;5030568;28;19925;-83
2023/07/12 02:35:07;;;;;;;;;;;;;;;10.46;91.98;98522.88;5030875;28;19947;-82
2023/07/12 02:37:34;;;;;;;;;;;;;;;10.55;92.01;98514.06;5030480;28;19932;-82
2023/07/12 02:40:01;;;;;;;;;;;;;;;10.61;91.75;98512.25;5030556;28;19925;-82
2023/07/12 02:42:30;;;;;;;;;;;;;;;10.52;90.80;98513.75;5029393;28;19975;-82
2023/07/12 02:44:57;;;;;;;;;;;;;;;10.57;90.82;98508.41;5044136;28;19925;-82
2023/07/12 02:47:24;;;;;;;;;;;;;;;10.63;90.68;98512.78;5050705;28;19925;-82
2023/07/12 02:49:51;;;;;;;;;;;;;;;10.59;90.19;98512.47;5050469;28;19924;-83
2023/07/12 02:52:17;;;;;;;;;;;;;;;10.60;90.07;98519.50;5050217;28;20043;-82
2023/07/12 02:54:44;;;;;;;;;;;;;;;10.57;89.61;98516.50;5050760;28;20399;-82
2023/07/12 02:57:12;;;;;;;;;;;;;;;10.54;89.30;98517.84;5053194;28;20370;-82
2023/07/12 02:59:39;;;;;;;;;;;;;;;10.47;89.18;98519.13;5060719;28;20302;-81
2023/07/12 03:02:06;;;;;;;;;;;;;;;10.47;89.40;98519.13;5051435;28;20383;-82
2023/07/12 03:04:33;;;;;;;;;;;;;;;10.48;89.74;98518.88;5057654;28;19931;-82
2023/07/12 03:07:00;;;;;;;;;;;;;;;10.50;89.93;98515.91;5050814;28;20028;-82
2023/07/12 03:09:27;;;;;;;;;;;;;;;10.51;89.94;98517.53;5049528;28;19924;-81
2023/07/12 03:11:54;;;;;;;;;;;;;;;10.59;89.81;98522.47;5050226;28;19925;-81
2023/07/12 03:14:21;;;;;;;;;;;;;;;10.62;89.50;98520.06;5049931;28;20370;-83
2023/07/12 03:16:48;;;;;;;;;;;;;;;10.62;88.99;98511.16;5049808;28;19925;-83
2023/07/12 03:19:15;;;;;;;;;;;;;;;10.74;89.13;98516.38;5049257;28;19974;-82
2023/07/12 03:21:42;;;;;;;;;;;;;;;10.90;89.09;98517.31;5050015;28;19960;-83
2023/07/12 03:24:09;;;;;;;;;;;;;;;10.96;87.94;98508.16;5045752;28;19935;-84
2023/07/12 03:26:36;;;;;;;;;;;;;;;10.98;87.14;98503.34;5040601;28;19971;-83
2023/07/12 03:29:03;;;;;;;;;;;;;;;11.07;86.18;98510.69;5036615;28;19924;-84
2023/07/12 03:31:30;;;;;;;;;;;;;;;11.12;85.83;98511.81;5029703;28;19931;-82
2023/07/12 03:33:58;;;;;;;;;;;;;;;11.37;85.42;98513.84;5037074;28;20015;-81
2023/07/12 03:36:29;;;;;;;;;;;;;;;11.35;84.53;98516.00;5038998;28;19932;-82
2023/07/12 03:38:56;;;;;;;;;;;;;;;11.31;84.53;98514.88;5040808;28;20015;-80
2023/07/12 03:41:23;;;;;;;;;;;;;;;11.29;84.51;98512.44;5048465;28;19924;-81
2023/07/12 03:43:50;;;;;;;;;;;;;;;11.25;84.17;98511.34;5050174;28;20409;-80
2023/07/12 03:46:17;;;;;;;;;;;;;;;11.18;84.29;98514.28;5050164;28;19925;-80
2023/07/12 03:48:44;;;;;;;;;;;;;;;11.15;84.12;98511.28;5048736;28;20575;-80
2023/07/12 03:51:11;;;;;;;;;;;;;;;11.09;84.50;98506.91;5049509;28;20022;-81
2023/07/12 03:53:38;;;;;;;;;;;;;;;11.07;84.19;98510.69;5038083;28;20358;-80
2023/07/12 03:56:05;;;;;;;;;;;;;;;11.14;84.44;98499.69;5041104;28;20031;-81
2023/07/12 03:58:33;;;;;;;;;;;;;;;11.07;83.49;98502.59;5038785;28;19925;-81
2023/07/12 04:01:01;;;;;;;;;;;;;;;10.95;83.65;98504.66;5042176;28;20329;-81
2023/07/12 04:03:28;;;;;;;;;;;;;;;10.92;83.59;98504.38;5040746;28;19925;-81
2023/07/12 04:05:55;;;;;;;;;;;;;;;10.93;83.91;98509.50;5029187;28;19959;-81
2023/07/12 04:08:22;;;;;;;;;;;;;;;11.04;83.83;98500.41;5029779;28;19932;-81
2023/07/12 04:10:55;;;;;;;;;;;;;;;11.13;83.15;98502.63;5040031;28;20276;-84
2023/07/12 04:13:23;;;;;;;;;;;;;;;11.01;82.18;98495.53;5036962;28;20387;-84
2023/07/12 04:15:51;;;;;;;;;;;;;;;11.06;82.28;98508.25;5035475;28;19925;-82
2023/07/12 04:18:18;;;;;;;;;;;;;;;11.23;82.15;98505.41;5038524;28;21938;-81
2023/07/12 04:20:45;;;;;;;;;;;;;;;11.23;81.66;98500.00;5039541;28;20051;-82
2023/07/12 04:23:12;;;;;;;;;;;;;;;11.26;81.87;98502.16;5034354;28;19947;-82
2023/07/12 04:25:39;;;;;;;;;;;;;;;11.34;81.46;98509.75;5020831;28;19929;-80
2023/07/12 04:28:06;;;;;;;;;;;;;;;11.39;81.15;98496.28;5031511;28;19925;-81
2023/07/12 04:30:33;;;;;;;;;;;;;;;11.30;80.32;98510.56;5029050;28;19948;-81
2023/07/12 04:33:00;;;;;;;;;;;;;;;11.17;80.87;98506.44;5033412;28;20037;-82
2023/07/12 04:35:27;;;;;;;;;;;;;;;11.10;81.37;98503.97;5041660;28;20278;-83
2023/07/12 04:37:54;;;;;;;;;;;;;;;11.07;80.98;98502.59;4701108;28;10000436;-79
2023/07/12 04:40:21;;;;;;;;;;;;;;;11.02;81.27;98502.56;5049658;28;19924;-81
2023/07/12 04:42:48;;;;;;;;;;;;;;;11.07;81.18;98504.50;5043023;28;20310;-81
2023/07/12 04:45:15;;;;;;;;;;;;;;;11.16;81.11;98505.59;5031052;28;19971;-80
2023/07/12 04:47:42;;;;;;;;;;;;;;;11.26;80.69;98505.66;5029573;28;20027;-80
2023/07/12 04:50:10;;;;;;;;;;;;;;;11.21;80.01;98505.63;5011994;28;20027;-81
2023/07/12 04:52:37;;;;;;;;;;;;;;;11.18;79.92;98508.88;5029944;28;19924;-79
2023/07/12 04:55:20;;;;;;;;;;;;;;;11.23;79.94;98508.09;5036328;28;19929;-79
2023/07/12 04:57:47;;;;;;;;;;;;;;;11.27;79.67;98504.63;5048788;28;19924;-79
2023/07/12 05:00:15;;;;;;;;;;;;;;;11.27;79.14;98501.09;5044207;28;19967;-79
2023/07/12 05:02:42;;;;;;;;;;;;;;;11.28;79.15;98500.81;5037711;28;20552;-80
2023/07/12 05:05:11;;;;;;;;;;;;;;;11.37;79.36;98503.88;5028994;28;19991;-80
2023/07/12 05:07:39;;;;;;;;;;;;;;;11.48;79.11;98502.03;5028740;28;19925;-79
2023/07/12 05:10:06;;;;;;;;;;;;;;;11.55;78.74;98499.91;5029624;28;19968;-80
2023/07/12 05:12:34;;;;;;;;;;;;;;;11.68;78.50;98501.31;5034405;28;19924;-80
2023/07/12 05:15:01;;;;;;;;;;;;;;;11.76;78.15;98489.97;5038392;28;19931;-81
2023/07/12 05:17:31;;;;;;;;;;;;;;;11.80;76.87;98487.56;5028364;28;19935;-83
2023/07/12 05:19:58;;;;;;;;;;;;;;;11.81;76.30;98486.50;5041271;28;20027;-81
2023/07/12 05:22:25;;;;;;;;;;;;;;;11.76;75.94;98487.28;5038216;28;19987;-81
2023/07/12 05:24:52;;;;;;;;;;;;;;;11.83;76.23;98493.25;5036658;28;19925;-82
2023/07/12 05:27:19;;;;;;;;;;;;;;;11.92;75.74;98489.00;5036991;28;19960;-82
2023/07/12 05:29:46;;;;;;;;;;;;;;;11.75;75.22;98487.53;5031141;28;19925;-81
2023/07/12 05:32:13;;;;;;;;;;;;;;;11.73;75.68;98478.91;5032598;28;20035;-82
2023/07/12 05:34:41;;;;;;;;;;;;;;;11.72;75.38;98478.06;5051918;28;19968;-81
2023/07/12 05:37:12;;;;;;;;;;;;;;;11.69;75.64;98484.81;5051710;28;19975;-82
2023/07/12 05:39:40;;;;;;;;;;;;;;;11.64;75.41;98482.09;5050476;28;19936;-83
2023/07/12 05:42:07;;;;;;;;;;;;;;;11.60;75.91;98470.19;5056879;28;19924;-84
2023/07/12 05:44:34;;;;;;;;;;;;;;;11.59;75.82;98478.56;5053281;28;19925;-82
2023/07/12 05:47:01;;;;;;;;;;;;;;;11.60;75.20;98464.78;5051542;28;19924;-82
2023/07/12 05:49:28;;;;;;;;;;;;;;;11.64;75.34;98462.34;5051336;28;19924;-82
2023/07/12 05:51:55;;;;;;;;;;;;;;;11.82;75.47;98469.19;5050675;28;19924;-83
2023/07/12 05:54:22;;;;;;;;;;;;;;;11.87;74.62;98466.53;5033180;28;19948;-81
2023/07/12 05:56:49;;;;;;;;;;;;;;;12.04;74.83;98464.41;5049342;28;19967;-80
2023/07/12 05:59:15;;;;;;;;;;;;;;;12.12;74.07;98472.00;5041905;28;19933;-79
2023/07/12 06:01:42;;;;;;;;;;;;;;;12.00;73.05;98470.63;5033813;28;19925;-82
2023/07/12 06:04:11;;;;;;;;;;;;;;;11.97;73.35;98457.63;5029545;28;19979;-83
2023/07/12 06:06:38;;;;;;;;;;;;;;;12.00;72.96;98462.50;5030870;28;19959;-82
2023/07/12 06:09:05;;;;;;;;;;;;;;;12.05;71.94;98463.34;5030985;28;19932;-82
2023/07/12 06:11:32;;;;;;;;;;;;;;;12.04;72.03;98459.00;5031035;28;19925;-81
2023/07/12 06:13:59;;;;;;;;;;;;;;;12.05;71.55;98454.41;5033022;28;19925;-82
2023/07/12 06:16:26;;;;;;;;;;;;;;;12.26;70.83;98460.69;5049560;28;20057;-81
2023/07/12 06:18:53;;;;;;;;;;;;;;;12.30;70.33;98450.91;5032461;28;19924;-81
2023/07/12 06:21:20;;;;;;;;;;;;;;;12.48;70.08;98463.09;5050884;28;19964;-82
2023/07/12 06:23:48;;;;;;;;;;;;;;;12.49;69.56;98460.16;5049389;28;20425;-81
2023/07/12 06:26:15;;;;;;;;;;;;;;;12.55;69.15;98458.25;5049330;28;19931;-82
2023/07/12 06:28:42;;;;;;;;;;;;;;;12.62;68.86;98450.66;5048817;28;19971;-84
2023/07/12 06:31:14;;;;;;;;;;;;;;;12.74;68.38;98458.53;5050700;28;19971;-81
2023/07/12 06:33:45;;;;;;;;;;;;;;;12.55;68.25;98452.84;5049086;28;19970;-82
2023/07/12 06:36:12;;;;;;;;;;;;;;;12.59;68.77;98464.75;5049367;28;19946;-82
2023/07/12 06:38:38;;;;;;;;;;;;;;;12.84;68.16;98447.69;5050059;28;20460;-81
2023/07/12 06:41:05;;;;;;;;;;;;;;;12.75;67.98;98454.72;5050233;28;20329;-81
2023/07/12 06:43:33;;;;;;;;;;;;;;;12.77;68.05;98453.38;5050251;28;19924;-83
2023/07/12 06:46:00;;;;;;;;;;;;;;;12.43;68.35;98452.28;5049982;28;19932;-82
2023/07/12 06:48:28;;;;;;;;;;;;;;;12.25;69.35;98448.22;5050097;28;19924;-81
2023/07/12 06:50:55;;;;;;;;;;;;;;;12.21;69.56;98456.06;5049942;28;19925;-82
2023/07/12 06:53:21;;;;;;;;;;;;;;;12.09;70.10;98452.78;5049667;28;20019;-82
2023/07/12 06:55:50;;;;;;;;;;;;;;;12.10;70.46;98452.53;5050385;28;20027;-81
2023/07/12 06:58:17;;;;;;;;;;;;;;;11.99;70.76;98453.56;5050506;28;19924;-81
2023/07/12 07:00:44;;;;;;;;;;;;;;;11.99;70.97;98455.47;5048918;28;19932;-83
2023/07/12 07:03:12;;;;;;;;;;;;;;;12.11;71.19;98461.47;5050288;28;20379;-81
2023/07/12 07:05:40;;;;;;;;;;;;;;;12.36;70.57;98458.78;5050300;28;19960;-81
2023/07/12 07:08:07;;;;;;;;;;;;;;;12.55;70.22;98458.25;5049224;28;20252;-81
2023/07/12 07:10:34;;;;;;;;;;;;;;;12.75;69.69;98446.59;5048921;28;19925;-81
2023/07/12 07:13:01;;;;;;;;;;;;;;;12.75;68.94;98447.41;5050293;28;19924;-81
2023/07/12 07:15:28;;;;;;;;;;;;;;;12.99;68.91;98449.56;5051425;28;20346;-81
2023/07/12 07:17:56;;;;;;;;;;;;;;;13.16;68.02;98446.53;5053860;28;20407;-82
2023/07/12 07:20:24;;;;;;;;;;;;;;;13.10;68.31;98453.06;5053834;28;19928;-82
2023/07/12 07:22:51;;;;;;;;;;;;;;;13.05;68.19;98458.47;5052504;28;20021;-82
2023/07/12 07:25:18;;;;;;;;;;;;;;;13.10;68.61;98445.72;5053943;28;20341;-81
2023/07/12 07:27:48;;;;;;;;;;;;;;;13.41;68.12;98445.66;5053412;28;19932;-82
2023/07/12 07:30:16;;;;;;;;;;;;;;;13.49;67.03;98455.13;5053514;28;20035;-81
2023/07/12 07:32:43;;;;;;;;;;;;;;;13.39;66.74;98451.38;5053781;28;19956;-81
2023/07/12 07:35:11;;;;;;;;;;;;;;;13.45;66.59;98452.19;5052370;28;20031;-81
2023/07/12 07:37:38;;;;;;;;;;;;;;;13.36;66.17;98446.50;5053525;28;20499;-82
2023/07/12 07:40:07;;;;;;;;;;;;;;;13.28;66.81;98454.41;5053982;28;19931;-81
2023/07/12 07:42:34;;;;;;;;;;;;;;;13.29;66.87;98450.59;5053503;28;19924;-82
2023/07/12 07:45:01;;;;;;;;;;;;;;;13.42;66.75;98452.75;5052225;28;19929;-81
2023/07/12 07:47:29;;;;;;;;;;;;;;;13.66;65.86;98451.00;5053552;28;20027;-81
2023/07/12 07:49:56;;;;;;;;;;;;;;;13.72;65.01;98443.63;5052075;28;19925;-81
2023/07/12 07:52:23;;;;;;;;;;;;;;;13.67;64.65;98449.09;5037659;28;19925;-81
2023/07/12 07:54:50;;;;;;;;;;;;;;;13.65;64.93;98445.88;5042161;28;20379;-82
2023/07/12 07:57:23;;;;;;;;;;;;;;;13.52;65.05;98451.88;5034475;28;20391;-80
2023/07/12 07:59:55;;;;;;;;;;;;;;;13.32;65.33;98456.28;5032176;28;20418;-81
2023/07/12 08:02:22;;;;;;;;;;;;;;;13.31;65.83;98456.53;5039604;28;20020;-80
2023/07/12 08:04:50;;;;;;;;;;;;;;;13.21;66.14;98454.66;5036662;28;20602;-81
2023/07/12 08:07:19;;;;;;;;;;;;;;;13.32;66.40;98464.41;5038417;28;20031;-82
2023/07/12 08:09:50;;;;;;;;;;;;;;;13.46;66.30;98456.50;5046459;28;20272;-82
2023/07/12 08:12:32;;;;;;;;;;;;;;;13.43;65.79;98455.16;5045362;28;20361;-80
2023/07/12 08:15:04;;;;;;;;;;;;;;;13.44;66.04;98462.22;5041903;28;20030;-81
2023/07/12 08:17:33;;;;;;;;;;;;;;;13.54;65.47;98452.41;5053525;28;19931;-84
2023/07/12 08:20:04;;;;;;;;;;;;;;;13.60;64.95;98459.44;5045986;28;20337;-82
2023/07/12 08:22:34;;;;;;;;;;;;;;;13.74;65.12;98457.72;5046653;28;19929;-83
2023/07/12 08:25:01;;;;;;;;;;;;;;;13.88;64.41;98455.25;5041744;28;19944;-82
2023/07/12 08:27:46;;;;;;;;;;;;;;;14.06;63.80;98459.22;5016378;28;19972;-82
2023/07/12 08:30:13;;;;;;;;;;;;;;;14.13;63.19;98458.88;5032303;28;19936;-80
2023/07/12 08:32:43;;;;;;;;;;;;;;;14.29;62.85;98455.78;5032544;28;19968;-82
2023/07/12 08:35:13;;;;;;;;;;;;;;;14.61;62.52;98459.09;5042241;28;20239;-82
2023/07/12 08:37:40;;;;;;;;;;;;;;;14.66;61.27;98445.50;5038981;28;20604;-82
2023/07/12 08:40:14;;;;;;;;;;;;;;;14.86;61.47;98445.34;5043574;28;19971;-82
2023/07/12 08:42:41;;;;;;;;;;;;;;;14.74;60.50;98458.47;5044296;28;19928;-81
2023/07/12 08:45:29;;;;;;;;;;;;;;;14.53;60.93;98444.25;5031361;28;20395;-80
2023/07/12 08:48:20;;;;;;;;;;;;;;;14.37;61.13;98448.16;5035726;28;20017;-82
2023/07/12 08:50:48;;;;;;;;;;;;;;;14.30;61.62;98448.44;5035551;28;20449;-82
2023/07/12 08:53:25;;;;;;;;;;;;;;;14.36;61.78;98441.91;5032396;28;19932;-81
2023/07/12 08:55:54;;;;;;;;;;;;;;;14.45;61.96;98442.09;5030991;28;19925;-82
2023/07/12 08:58:23;;;;;;;;;;;;;;;14.59;61.49;98445.84;5032173;28;19925;-81
2023/07/12 09:00:52;;;;;;;;;;;;;;;14.55;60.62;98441.25;5030910;28;20315;-82
2023/07/12 09:03:19;;;;;;;;;;;;;;;14.69;60.03;98451.19;5031278;28;20302;-80
2023/07/12 09:05:47;;;;;;;;;;;;;;;14.72;59.77;98449.78;5031947;28;19924;-81
2023/07/12 09:08:40;;;;;;;;;;;;;;;14.82;59.33;98443.47;5031929;28;19971;-80
2023/07/12 09:11:14;;;;;;;;;;;;;;;14.93;59.11;98444.97;5031675;28;19956;-82
2023/07/12 09:13:51;;;;;;;;;;;;;;;15.14;58.80;98442.84;5042130;28;20483;-83
2023/07/12 09:16:23;;;;;;;;;;;;;;;15.35;58.35;98438.84;5035029;28;19978;-81
2023/07/12 09:18:52;;;;;;;;;;;;;;;15.43;57.29;98442.03;5051667;28;19924;-80
2023/07/12 09:21:20;;;;;;;;;;;;;;;15.85;56.78;98432.25;5050575;28;19924;-81
2023/07/12 09:23:47;;;;;;;;;;;;;;;16.35;54.70;98430.69;5050448;28;19932;-82
2023/07/12 09:26:20;;;;;;;;;;;;;;;16.70;54.40;98433.97;5051816;28;19924;-81
2023/07/12 09:28:48;;;;;;;;;;;;;;;16.95;52.80;98438.19;5051218;28;20528;-81
2023/07/12 09:31:23;;;;;;;;;;;;;;;17.09;52.03;98433.59;5051452;28;20429;-81
2023/07/12 09:33:53;;;;;;;;;;;;;;;16.62;52.01;98434.66;5051540;28;19959;-82
2023/07/12 09:36:20;;;;;;;;;;;;;;;16.76;52.70;98438.22;5050170;28;20279;-82
2023/07/12 09:38:47;;;;;;;;;;;;;;;16.82;51.50;98434.34;5051069;28;20023;-81
2023/07/12 09:41:18;;;;;;;;;;;;;;;16.70;51.92;98431.22;5051565;28;19924;-81
2023/07/12 09:43:49;;;;;;;;;;;;;;;16.53;52.18;98428.25;5051072;28;19932;-81
2023/07/12 09:46:16;;;;;;;;;;;;;;;16.45;52.03;98425.09;5033519;28;20346;-81
2023/07/12 09:48:46;;;;;;;;;;;;;;;16.44;52.43;98423.50;5049933;28;19924;-81
2023/07/12 09:51:13;;;;;;;;;;;;;;;16.44;51.72;98420.75;5049981;28;19924;-81
2023/07/12 09:53:41;;;;;;;;;;;;;;;16.27;51.54;98415.03;5049814;28;19978;-82
2023/07/12 09:56:24;;;;;;;;;;;;;;;16.35;51.39;98408.91;5036701;28;19925;-84
2023/07/12 09:58:58;;;;;;;;;;;;;;;16.98;50.59;98414.97;5025658;28;20413;-81
2023/07/12 10:01:31;;;;;;;;;;;;;;;17.61;49.39;98414.28;5042766;28;19925;-80
2023/07/12 10:04:00;;;;;;;;;;;;;;;17.62;48.65;98409.63;5050803;28;19924;-82
2023/07/12 10:06:40;;;;;;;;;;;;;;;17.38;48.00;98418.03;5024469;28;19931;-80
2023/07/12 10:09:09;;;;;;;;;;;;;;;17.30;48.34;98412.19;5018795;28;20110;-81
2023/07/12 10:11:48;;;;;;;;;;;;;;;17.46;48.57;98411.88;5028752;28;19971;-81
2023/07/12 10:14:15;;;;;;;;;;;;;;;17.41;48.43;98406.53;5047036;28;19978;-81
2023/07/12 10:16:50;;;;;;;;;;;;;;;17.27;48.56;98412.78;5031093;28;19924;-81
2023/07/12 10:19:21;;;;;;;;;;;;;;;16.76;48.97;98413.72;5045641;28;19925;-80
2023/07/12 10:21:49;;;;;;;;;;;;;;;16.29;49.98;98404.69;5049452;28;19947;-81
2023/07/12 10:24:16;;;;;;;;;;;;;;;15.90;51.08;98404.97;5045709;28;19931;-81
2023/07/12 10:26:47;;;;;;;;;;;;;;;15.63;51.20;98420.00;5043778;28;20460;-81
2023/07/12 10:29:19;;;;;;;;;;;;;;;15.30;51.90;98416.34;5043827;28;19928;-81
2023/07/12 10:31:48;;;;;;;;;;;;;;;15.16;52.30;98417.00;5038095;28;19924;-81
2023/07/12 10:34:24;;;;;;;;;;;;;;;15.13;52.87;98423.03;5049805;28;19947;-80
2023/07/12 10:36:54;;;;;;;;;;;;;;;15.23;52.11;98422.13;5042178;28;19931;-79
2023/07/12 10:39:23;;;;;;;;;;;;;;;15.34;51.66;98425.53;5036726;28;19974;-80
2023/07/12 10:42:16;;;;;;;;;;;;;;;15.50;51.15;98423.44;5038345;28;19936;-80
2023/07/12 10:44:45;;;;;;;;;;;;;;;15.53;50.46;98425.56;5007014;28;19932;-79
2023/07/12 10:47:15;;;;;;;;;;;;;;;15.53;50.95;98420.94;4999815;28;19951;-80
2023/07/12 10:49:45;;;;;;;;;;;;;;;15.71;50.67;98416.66;5012797;28;20354;-80
2023/07/12 10:52:11;;;;;;;;;;;;;;;15.89;49.19;98420.50;5019591;28;19937;-79
2023/07/12 10:54:43;;;;;;;;;;;;;;;16.22;48.87;98418.66;5022142;28;20331;-80
2023/07/12 10:57:19;;;;;;;;;;;;;;;16.57;48.03;98416.47;5012075;28;20686;-79
2023/07/12 10:59:46;;;;;;;;;;;;;;;16.81;46.55;98416.38;5013409;28;19964;-80
2023/07/12 11:02:20;;;;;;;;;;;;;;;16.99;45.75;98411.13;5014146;28;20699;-80
2023/07/12 11:04:48;;;;;;;;;;;;;;;17.53;45.62;98417.72;5020078;28;19973;-80
2023/07/12 11:07:14;;;;;;;;;;;;;;;17.81;43.09;98420.47;4995320;28;19984;-80
2023/07/12 11:09:45;;;;;;;;;;;;;;;17.95;43.33;98410.28;5011764;28;20498;-81
2023/07/12 11:12:30;;;;;;;;;;;;;;;18.03;42.76;98404.13;5030410;28;19967;-81
2023/07/12 11:15:06;;;;;;;;;;;;;;;17.98;42.57;98402.31;5013969;28;19960;-81
2023/07/12 11:17:57;;;;;;;;;;;;;;;18.08;42.43;98394.97;5014633;28;20019;-80
2023/07/12 11:20:26;;;;;;;;;;;;;;;18.19;41.75;98405.38;5014527;28;19925;-80
2023/07/12 11:22:53;;;;;;;;;;;;;;;18.32;40.68;98400.16;5051973;28;19928;-81
2023/07/12 11:25:36;;;;;;;;;;;;;;;17.94;40.46;98397.78;5047867;28;19944;-81
2023/07/12 11:28:04;;;;;;;;;;;;;;;17.67;41.22;98396.69;5038448;28;19925;-82
2023/07/12 11:30:31;;;;;;;;;;;;;;;18.05;41.71;98404.59;5049040;28;19931;-81
2023/07/12 11:33:02;;;;;;;;;;;;;;;17.94;41.28;98393.13;5052913;28;20031;-82
2023/07/12 11:35:41;;;;;;;;;;;;;;;17.57;42.21;98402.34;5038380;28;20032;-79
2023/07/12 11:38:13;;;;;;;;;;;;;;;17.46;41.87;98392.78;5037868;28;20300;-81
2023/07/12 11:40:40;;;;;;;;;;;;;;;17.43;42.39;98394.19;5035710;28;19932;-80
2023/07/12 11:43:22;;;;;;;;;;;;;;;17.49;42.75;98401.16;5040054;28;19931;-80
2023/07/12 11:45:49;;;;;;;;;;;;;;;17.23;43.67;98405.50;5031796;28;19925;-79
2023/07/12 11:48:16;;;;;;;;;;;;;;;17.10;44.32;98402.47;5032848;28;19925;-80
2023/07/12 11:50:44;;;;;;;;;;;;;;;16.81;45.00;98401.91;5034262;28;20436;-80
2023/07/12 11:53:11;;;;;;;;;;;;;;;16.74;45.70;98405.03;5040386;28;20388;-80
2023/07/12 11:55:39;;;;;;;;;;;;;;;16.73;45.77;98397.13;5031197;28;19924;-79
2023/07/12 11:58:20;;;;;;;;;;;;;;;16.56;46.06;98409.41;5043277;28;20319;-78
2023/07/12 12:00:47;;;;;;;;;;;;;;;16.16;47.42;98405.44;5052065;28;19935;-80
2023/07/12 12:03:14;;;;;;;;;;;;;;;16.01;48.71;98415.44;5052340;28;20011;-82
2023/07/12 12:05:41;;;;;;;;;;;;;;;15.78;49.66;98422.56;5044614;28;19951;-80
2023/07/12 12:08:17;;;;;;;;;;;;;;;15.63;50.75;98411.03;5029652;28;19958;-79
2023/07/12 12:10:45;;;;;;;;;;;;;;;15.54;50.85;98419.03;5039826;28;19932;-79
2023/07/12 12:13:20;;;;;;;;;;;;;;;15.54;50.47;98416.31;5034892;28;19971;-80
2023/07/12 12:16:06;;;;;;;;;;;;;;;15.57;50.69;98422.00;5040526;28;20387;-79
2023/07/12 12:18:33;;;;;;;;;;;;;;;15.70;50.75;98419.66;5037189;28;19929;-80
2023/07/12 12:21:02;;;;;;;;;;;;;;;15.72;50.95;98417.47;5031118;28;20391;-81
2023/07/12 12:23:35;;;;;;;;;;;;;;;15.75;50.78;98411.47;5034741;28;19979;-79
2023/07/12 12:26:11;;;;;;;;;;;;;;;16.01;50.77;98422.78;5041498;28;20276;-81
2023/07/12 12:28:39;;;;;;;;;;;;;;;16.59;49.82;98427.06;5030532;28;19925;-79
2023/07/12 12:31:17;;;;;;;;;;;;;;;16.97;48.33;98406.00;5031335;28;20596;-80
2023/07/12 12:33:45;;;;;;;;;;;;;;;17.14;47.32;98413.56;5031243;28;20391;-81
2023/07/12 12:36:13;;;;;;;;;;;;;;;17.31;46.83;98413.78;5015233;28;19924;-82
2023/07/12 12:38:40;;;;;;;;;;;;;;;17.58;46.15;98420.34;5029201;28;20445;-81
2023/07/12 12:41:14;;;;;;;;;;;;;;;18.09;45.56;98419.25;5035042;28;19924;-81
2023/07/12 12:44:04;;;;;;;;;;;;;;;18.29;44.56;98423.44;5043503;28;20015;-82
2023/07/12 12:46:31;;;;;;;;;;;;;;;18.10;44.35;98418.13;5050293;28;20299;-82
2023/07/12 12:49:25;;;;;;;;;;;;;;;17.73;43.61;98425.47;5042300;28;19979;-81
2023/07/12 12:52:16;;;;;;;;;;;;;;;17.54;43.76;98411.94;5038749;28;19925;-80
2023/07/12 12:54:45;;;;;;;;;;;;;;;17.82;43.58;98424.78;5038521;28;19925;-80
2023/07/12 12:57:13;;;;;;;;;;;;;;;17.92;43.74;98413.63;5041993;28;19951;-81